Time;durP1;ratioP1;P1;durP2;ratioP2;P2;SDS_P1;SDS_P2;PMS_P1;PMS_P2;Temp;Humidity;BMP_temperature;BMP_pressure;BME280_temperature;BME280_humidity;BME280_pressure;Samples;Min_cycle;Max_cycle;Signal;HPM_P1;HPM_P2
2021/08/20 00:01:14;;;;;;;3.75;1.92;;;;;;;;;;5112133;28;20047;-70
2021/08/20 00:03:41;;;;;;;4.50;1.80;;;;;;;;;;5111730;28;20083;-70
2021/08/20 00:06:08;;;;;;;4.75;1.63;;;;;;;;;;5111924;28;20048;-69
2021/08/20 00:08:35;;;;;;;3.42;1.58;;;;;;;;;;5111942;28;20408;-70
2021/08/20 00:11:03;;;;;;;3.17;1.95;;;;;;;;;;5113783;28;20095;-70
2021/08/20 00:13:30;;;;;;;4.32;1.90;;;;;;;;;;5115983;28;20047;-70
2021/08/20 00:15:56;;;;;;;5.72;2.05;;;;;;;;;;5116111;28;20050;-70
2021/08/20 00:18:23;;;;;;;4.47;1.98;;;;;;;;;;5116055;28;20052;-69
2021/08/20 00:20:49;;;;;;;3.80;1.73;;;;;;;;;;5115684;28;20047;-69
2021/08/20 00:23:19;;;;;;;2.92;1.70;;;;;;;;;;5115756;28;20051;-70
2021/08/20 00:25:46;;;;;;;3.03;1.70;;;;;;;;;;5115601;28;20079;-69
2021/08/20 00:28:13;;;;;;;6.22;2.58;;;;;;;;;;5110259;28;20048;-70
2021/08/20 00:30:39;;;;;;;2.83;1.77;;;;;;;;;;5113394;28;20126;-69
2021/08/20 00:33:06;;;;;;;3.15;1.73;;;;;;;;;;5095315;28;20048;-69
2021/08/20 00:35:32;;;;;;;3.72;1.80;;;;;;;;;;5109528;28;20054;-69
2021/08/20 00:37:58;;;;;;;2.67;1.60;;;;;;;;;;5114929;28;20048;-69
2021/08/20 00:40:27;;;;;;;4.25;2.30;;;;;;;;;;5115406;28;20047;-69
2021/08/20 00:42:53;;;;;;;3.08;1.75;;;;;;;;;;5115451;28;20048;-69
2021/08/20 00:45:20;;;;;;;4.18;1.88;;;;;;;;;;5115411;28;20052;-69
2021/08/20 00:47:46;;;;;;;3.42;1.85;;;;;;;;;;5115356;27;20054;-69
2021/08/20 00:50:13;;;;;;;3.85;1.80;;;;;;;;;;5115482;28;20147;-69
2021/08/20 00:52:39;;;;;;;3.60;1.73;;;;;;;;;;5115241;28;20047;-69
2021/08/20 00:55:08;;;;;;;5.35;1.73;;;;;;;;;;5114875;28;20059;-69
2021/08/20 00:57:36;;;;;;;2.78;1.50;;;;;;;;;;5115133;28;20050;-69
2021/08/20 01:00:04;;;;;;;3.55;1.80;;;;;;;;;;5115170;28;20054;-69
2021/08/20 01:02:30;;;;;;;4.70;1.65;;;;;;;;;;5115290;28;20047;-69
2021/08/20 01:04:57;;;;;;;6.05;1.70;;;;;;;;;;5114945;28;20432;-69
2021/08/20 01:07:23;;;;;;;3.20;1.70;;;;;;;;;;5114679;28;20067;-69
2021/08/20 01:09:50;;;;;;;3.08;1.60;;;;;;;;;;5114388;28;20134;-69
2021/08/20 01:12:16;;;;;;;6.80;1.52;;;;;;;;;;5114965;28;20077;-70
2021/08/20 01:14:50;;;;;;;3.28;1.65;;;;;;;;;;5115028;28;20498;-69
2021/08/20 01:17:17;;;;;;;2.88;1.75;;;;;;;;;;5114773;28;20116;-69
2021/08/20 01:19:44;;;;;;;4.45;2.17;;;;;;;;;;5114150;28;20407;-70
2021/08/20 01:22:10;;;;;;;3.42;1.80;;;;;;;;;;5113485;28;20052;-69
2021/08/20 01:24:37;;;;;;;2.90;1.70;;;;;;;;;;5114588;28;20055;-70
2021/08/20 01:27:05;;;;;;;2.85;1.50;;;;;;;;;;5114639;28;20506;-70
2021/08/20 01:29:32;;;;;;;4.75;1.70;;;;;;;;;;5114347;28;20048;-70
2021/08/20 01:31:59;;;;;;;4.38;1.90;;;;;;;;;;5114541;28;20377;-70
2021/08/20 01:34:25;;;;;;;3.80;1.90;;;;;;;;;;5114245;28;20063;-70
2021/08/20 01:36:52;;;;;;;3.00;1.75;;;;;;;;;;5112428;28;20420;-70
2021/08/20 01:39:18;;;;;;;4.90;1.95;;;;;;;;;;5114314;28;20043;-70
2021/08/20 01:41:45;;;;;;;2.90;1.75;;;;;;;;;;5114132;28;20480;-69
2021/08/20 01:44:13;;;;;;;5.03;2.25;;;;;;;;;;5113987;28;20048;-70
2021/08/20 01:46:39;;;;;;;6.20;2.15;;;;;;;;;;5114296;28;20472;-69
2021/08/20 01:49:07;;;;;;;5.32;1.70;;;;;;;;;;5113887;28;20055;-69
2021/08/20 01:51:34;;;;;;;2.90;1.63;;;;;;;;;;5113951;28;20149;-69
2021/08/20 01:54:02;;;;;;;3.15;1.70;;;;;;;;;;5114156;28;20052;-71
2021/08/20 01:56:30;;;;;;;2.75;1.45;;;;;;;;;;5113928;28;20044;-69
2021/08/20 01:58:58;;;;;;;2.42;1.50;;;;;;;;;;5113477;28;20055;-70
2021/08/20 02:01:26;;;;;;;3.83;1.80;;;;;;;;;;5113649;28;20048;-69
2021/08/20 02:03:53;;;;;;;2.95;1.70;;;;;;;;;;5113743;28;20047;-69
2021/08/20 02:06:20;;;;;;;5.80;1.80;;;;;;;;;;5113679;28;20047;-69
2021/08/20 02:08:46;;;;;;;4.47;1.95;;;;;;;;;;5113730;28;20052;-70
2021/08/20 02:11:13;;;;;;;3.25;1.60;;;;;;;;;;5113956;28;20055;-69
2021/08/20 02:13:40;;;;;;;3.40;1.73;;;;;;;;;;5113807;28;20461;-69
2021/08/20 02:16:07;;;;;;;3.95;1.77;;;;;;;;;;5113408;28;20407;-69
2021/08/20 02:18:35;;;;;;;3.30;1.92;;;;;;;;;;5113793;28;20377;-69
2021/08/20 02:21:02;;;;;;;4.60;2.03;;;;;;;;;;5113385;28;20043;-69
2021/08/20 02:23:28;;;;;;;2.78;1.70;;;;;;;;;;5113322;28;20055;-70
2021/08/20 02:25:55;;;;;;;3.38;1.50;;;;;;;;;;5113756;28;20492;-69
2021/08/20 02:28:21;;;;;;;2.75;1.77;;;;;;;;;;5113622;28;20048;-70
2021/08/20 02:30:49;;;;;;;4.55;1.77;;;;;;;;;;5113099;28;20044;-69
2021/08/20 02:33:16;;;;;;;3.20;1.80;;;;;;;;;;5113054;28;20079;-69
2021/08/20 02:35:44;;;;;;;2.72;1.75;;;;;;;;;;5113148;28;20047;-69
2021/08/20 02:38:11;;;;;;;4.03;1.80;;;;;;;;;;5111776;28;20058;-69
2021/08/20 02:40:37;;;;;;;7.20;2.13;;;;;;;;;;5112958;28;20047;-69
2021/08/20 02:43:04;;;;;;;3.58;1.85;;;;;;;;;;5113169;28;20062;-69
2021/08/20 02:45:31;;;;;;;3.10;1.70;;;;;;;;;;5112781;28;20472;-69
2021/08/20 02:47:57;;;;;;;3.53;1.90;;;;;;;;;;5113179;28;20048;-70
2021/08/20 02:50:24;;;;;;;5.45;1.73;;;;;;;;;;5112993;28;20054;-70
2021/08/20 02:52:51;;;;;;;5.00;2.88;;;;;;;;;;5112985;28;20058;-70
2021/08/20 02:55:18;;;;;;;4.95;1.77;;;;;;;;;;5112991;28;20044;-69
2021/08/20 02:57:44;;;;;;;2.67;1.63;;;;;;;;;;5113046;28;20055;-69
2021/08/20 03:00:12;;;;;;;3.35;1.95;;;;;;;;;;5112704;28;20051;-70
2021/08/20 03:02:39;;;;;;;3.70;1.60;;;;;;;;;;5112509;28;20047;-70
2021/08/20 03:05:07;;;;;;;3.03;1.73;;;;;;;;;;5112734;28;20138;-69
2021/08/20 03:07:33;;;;;;;4.70;2.10;;;;;;;;;;5112594;28;20047;-70
2021/08/20 03:10:01;;;;;;;4.03;1.77;;;;;;;;;;5112535;28;20047;-69
2021/08/20 03:12:28;;;;;;;3.45;1.85;;;;;;;;;;5112450;28;20047;-69
2021/08/20 03:14:55;;;;;;;4.20;1.55;;;;;;;;;;5112671;28;20764;-69
2021/08/20 03:17:21;;;;;;;4.80;2.42;;;;;;;;;;5112405;28;20059;-69
2021/08/20 03:19:48;;;;;;;3.78;2.00;;;;;;;;;;5112557;28;20399;-69
2021/08/20 03:22:14;;;;;;;3.72;1.80;;;;;;;;;;5112452;28;20058;-69
2021/08/20 03:24:41;;;;;;;3.67;2.13;;;;;;;;;;5112302;28;20134;-69
2021/08/20 03:27:09;;;;;;;3.55;1.90;;;;;;;;;;5112194;28;20051;-69
2021/08/20 03:29:35;;;;;;;3.60;1.88;;;;;;;;;;5112536;28;20050;-69
2021/08/20 03:32:01;;;;;;;4.18;1.95;;;;;;;;;;5111643;28;20058;-70
2021/08/20 03:34:28;;;;;;;3.78;2.10;;;;;;;;;;5111856;28;20058;-69
2021/08/20 03:36:55;;;;;;;3.03;1.63;;;;;;;;;;5112212;28;20402;-69
2021/08/20 03:39:22;;;;;;;4.15;1.70;;;;;;;;;;5110690;28;20506;-70
2021/08/20 03:41:48;;;;;;;4.25;2.17;;;;;;;;;;5111987;28;20062;-70
2021/08/20 03:44:17;;;;;;;3.53;1.80;;;;;;;;;;5112287;28;20055;-70
2021/08/20 03:46:44;;;;;;;3.65;1.90;;;;;;;;;;5111740;28;20060;-70
2021/08/20 03:49:10;;;;;;;3.78;1.83;;;;;;;;;;5112342;28;20464;-70
2021/08/20 03:51:37;;;;;;;3.08;1.63;;;;;;;;;;5111937;28;20134;-69
2021/08/20 03:54:04;;;;;;;3.92;2.05;;;;;;;;;;5112139;28;20059;-70
2021/08/20 03:56:30;;;;;;;5.95;2.22;;;;;;;;;;5112198;28;20054;-70
2021/08/20 03:58:58;;;;;;;6.43;1.90;;;;;;;;;;5112189;28;20059;-70
2021/08/20 04:01:26;;;;;;;3.65;1.90;;;;;;;;;;5112503;28;20057;-70
2021/08/20 04:03:52;;;;;;;3.78;1.95;;;;;;;;;;5112304;28;20043;-70
2021/08/20 04:06:19;;;;;;;4.57;1.83;;;;;;;;;;5112306;28;20396;-70
2021/08/20 04:08:45;;;;;;;2.92;1.65;;;;;;;;;;5112291;28;20776;-70
2021/08/20 04:11:12;;;;;;;4.20;1.80;;;;;;;;;;5112180;28;20408;-70
2021/08/20 04:13:39;;;;;;;5.65;2.22;;;;;;;;;;5111932;28;20043;-70
2021/08/20 04:16:06;;;;;;;7.00;2.22;;;;;;;;;;5112070;28;20083;-70
2021/08/20 04:18:33;;;;;;;3.13;1.92;;;;;;;;;;5112104;28;20058;-70
2021/08/20 04:21:00;;;;;;;4.60;2.10;;;;;;;;;;5111822;28;20040;-70
2021/08/20 04:23:26;;;;;;;3.65;2.13;;;;;;;;;;5111701;28;20047;-70
2021/08/20 04:25:53;;;;;;;4.13;1.95;;;;;;;;;;5111974;28;20079;-70
2021/08/20 04:28:19;;;;;;;5.18;2.17;;;;;;;;;;5111591;28;20051;-70
2021/08/20 04:30:46;;;;;;;3.47;1.98;;;;;;;;;;5111453;28;20058;-70
2021/08/20 04:33:12;;;;;;;5.03;2.28;;;;;;;;;;5111674;28;20059;-70
2021/08/20 04:35:40;;;;;;;4.32;2.53;;;;;;;;;;5111954;28;20054;-70
2021/08/20 04:38:06;;;;;;;4.22;2.45;;;;;;;;;;5111064;28;20053;-69
2021/08/20 04:40:33;;;;;;;3.25;1.90;;;;;;;;;;5110478;28;20052;-70
2021/08/20 04:43:00;;;;;;;3.22;1.95;;;;;;;;;;5111876;28;20043;-70
2021/08/20 04:45:26;;;;;;;5.25;1.98;;;;;;;;;;5111414;28;20059;-70
2021/08/20 04:47:52;;;;;;;3.72;2.30;;;;;;;;;;5111550;28;20048;-69
2021/08/20 04:50:20;;;;;;;6.40;2.15;;;;;;;;;;5111329;28;20055;-70
2021/08/20 04:52:47;;;;;;;4.38;2.10;;;;;;;;;;5111647;28;20047;-70
2021/08/20 04:55:14;;;;;;;3.65;2.13;;;;;;;;;;5111455;28;20062;-70
2021/08/20 04:57:40;;;;;;;3.83;2.33;;;;;;;;;;5112681;28;20094;-70
2021/08/20 05:00:08;;;;;;;3.58;1.83;;;;;;;;;;5114809;28;20047;-70
2021/08/20 05:02:35;;;;;;;6.68;2.30;;;;;;;;;;5115063;28;20091;-69
2021/08/20 05:05:02;;;;;;;4.45;2.45;;;;;;;;;;5114754;28;20146;-70
2021/08/20 05:07:29;;;;;;;4.15;2.78;;;;;;;;;;5115017;27;20051;-70
2021/08/20 05:09:58;;;;;;;4.65;2.20;;;;;;;;;;5114678;28;20054;-70
2021/08/20 05:12:25;;;;;;;2.95;1.63;;;;;;;;;;5114658;28;20055;-69
2021/08/20 05:14:51;;;;;;;4.82;2.97;;;;;;;;;;5114772;28;20508;-69
2021/08/20 05:17:17;;;;;;;5.38;2.10;;;;;;;;;;5115030;28;20400;-69
2021/08/20 05:19:44;;;;;;;3.78;2.28;;;;;;;;;;5114048;28;20064;-70
2021/08/20 05:22:10;;;;;;;4.30;2.42;;;;;;;;;;5114611;28;20384;-70
2021/08/20 05:24:37;;;;;;;4.75;2.30;;;;;;;;;;5114718;28;20047;-69
2021/08/20 05:27:05;;;;;;;3.58;1.95;;;;;;;;;;5114508;28;20047;-69
2021/08/20 05:29:32;;;;;;;7.97;2.58;;;;;;;;;;5113997;28;20055;-70
2021/08/20 05:31:58;;;;;;;7.20;2.67;;;;;;;;;;5114526;28;20055;-69
2021/08/20 05:34:24;;;;;;;3.97;2.17;;;;;;;;;;5114061;28;20056;-69
2021/08/20 05:36:51;;;;;;;6.90;2.22;;;;;;;;;;5114331;28;20050;-69
2021/08/20 05:39:17;;;;;;;5.65;2.42;;;;;;;;;;5113745;28;20052;-69
2021/08/20 05:41:44;;;;;;;4.65;2.25;;;;;;;;;;5112952;28;20055;-69
2021/08/20 05:44:12;;;;;;;5.40;2.60;;;;;;;;;;5114207;28;20373;-69
2021/08/20 05:46:38;;;;;;;5.88;2.85;;;;;;;;;;5114449;28;20047;-69
2021/08/20 05:49:07;;;;;;;4.82;2.97;;;;;;;;;;5114391;28;20054;-69
2021/08/20 05:51:34;;;;;;;4.63;2.30;;;;;;;;;;5098469;28;20119;-69
2021/08/20 05:54:00;;;;;;;3.03;1.95;;;;;;;;;;5114203;28;20044;-69
2021/08/20 05:56:27;;;;;;;4.53;1.90;;;;;;;;;;5113951;28;20062;-69
2021/08/20 05:58:53;;;;;;;3.75;2.20;;;;;;;;;;5114201;28;20391;-69
2021/08/20 06:01:21;;;;;;;4.75;2.30;;;;;;;;;;5114114;28;20054;-70
2021/08/20 06:03:48;;;;;;;3.13;2.03;;;;;;;;;;5113607;28;20407;-69
2021/08/20 06:06:15;;;;;;;5.00;2.60;;;;;;;;;;5113715;28;20048;-69
2021/08/20 06:08:42;;;;;;;3.55;2.15;;;;;;;;;;5113312;28;20047;-69
2021/08/20 06:11:08;;;;;;;4.45;2.00;;;;;;;;;;5113600;28;20047;-69
2021/08/20 06:13:35;;;;;;;5.10;3.10;;;;;;;;;;5113693;28;20048;-69
2021/08/20 06:16:01;;;;;;;4.95;2.40;;;;;;;;;;5113407;28;20511;-69
2021/08/20 06:18:29;;;;;;;3.67;2.15;;;;;;;;;;5113615;28;20464;-69
2021/08/20 06:20:56;;;;;;;3.25;2.03;;;;;;;;;;5112778;28;20048;-69
2021/08/20 06:23:22;;;;;;;5.40;2.65;;;;;;;;;;5113152;28;20058;-69
2021/08/20 06:25:48;;;;;;;6.20;2.30;;;;;;;;;;5113288;28;20054;-69
2021/08/20 06:28:15;;;;;;;4.57;2.55;;;;;;;;;;5113468;28;20518;-69
2021/08/20 06:30:46;;;;;;;5.65;3.30;;;;;;;;;;5113288;28;20048;-69
2021/08/20 06:33:13;;;;;;;4.43;2.58;;;;;;;;;;5113426;28;20051;-69
2021/08/20 06:35:41;;;;;;;5.07;2.90;;;;;;;;;;5113453;28;20054;-69
2021/08/20 06:38:07;;;;;;;4.07;2.72;;;;;;;;;;5112337;28;20059;-69
2021/08/20 06:40:34;;;;;;;5.57;2.63;;;;;;;;;;5112459;28;20048;-69
2021/08/20 06:43:00;;;;;;;5.72;2.63;;;;;;;;;;5112418;28;20048;-69
2021/08/20 06:45:27;;;;;;;4.95;2.47;;;;;;;;;;5113017;28;20428;-69
2021/08/20 06:47:53;;;;;;;4.90;3.00;;;;;;;;;;5112962;28;20051;-69
2021/08/20 06:50:20;;;;;;;5.45;2.95;;;;;;;;;;5112911;28;20055;-69
2021/08/20 06:52:48;;;;;;;6.32;2.63;;;;;;;;;;5112705;28;20051;-69
2021/08/20 06:55:14;;;;;;;6.47;2.90;;;;;;;;;;5112792;28;20640;-69
2021/08/20 06:57:41;;;;;;;4.95;2.83;;;;;;;;;;5108851;27;20057;-69
2021/08/20 07:00:09;;;;;;;4.45;2.80;;;;;;;;;;5112905;28;20430;-69
2021/08/20 07:02:41;;;;;;;6.05;2.95;;;;;;;;;;5102471;28;20649;-69
2021/08/20 07:05:09;;;;;;;3.75;2.40;;;;;;;;;;5112968;27;20073;-69
2021/08/20 07:07:36;;;;;;;4.18;2.47;;;;;;;;;;5127256;27;20475;-69
2021/08/20 07:10:06;;;;;;;3.53;2.30;;;;;;;;;;5133111;27;20416;-69
2021/08/20 07:12:32;;;;;;;5.05;2.42;;;;;;;;;;5133355;27;20067;-69
2021/08/20 07:14:59;;;;;;;5.63;2.58;;;;;;;;;;5133060;27;20046;-69
2021/08/20 07:17:26;;;;;;;4.90;2.45;;;;;;;;;;5133066;27;20047;-69
2021/08/20 07:19:52;;;;;;;4.00;2.55;;;;;;;;;;5132225;27;20047;-70
2021/08/20 07:22:18;;;;;;;5.95;3.20;;;;;;;;;;5133060;27;20039;-69
2021/08/20 07:24:45;;;;;;;5.05;3.53;;;;;;;;;;5123349;27;20135;-69
2021/08/20 07:27:13;;;;;;;4.75;3.40;;;;;;;;;;5112564;28;20058;-69
2021/08/20 07:29:39;;;;;;;7.25;3.70;;;;;;;;;;5112273;28;20055;-69
2021/08/20 07:32:07;;;;;;;10.77;3.67;;;;;;;;;;5112400;28;20403;-69
2021/08/20 07:34:33;;;;;;;4.78;2.83;;;;;;;;;;5112439;28;20047;-69
2021/08/20 07:37:00;;;;;;;3.80;2.13;;;;;;;;;;5111949;28;20480;-69
2021/08/20 07:39:27;;;;;;;6.28;3.28;;;;;;;;;;5112412;28;20480;-69
2021/08/20 07:41:54;;;;;;;5.47;3.00;;;;;;;;;;5111295;28;20458;-69
2021/08/20 07:44:22;;;;;;;6.47;3.15;;;;;;;;;;5111349;28;20063;-69
2021/08/20 07:46:48;;;;;;;5.82;3.28;;;;;;;;;;5112179;28;20051;-69
2021/08/20 07:49:15;;;;;;;8.43;3.72;;;;;;;;;;5112284;28;20480;-70
2021/08/20 07:51:41;;;;;;;5.05;2.95;;;;;;;;;;5111926;28;20044;-69
2021/08/20 07:54:08;;;;;;;4.93;3.13;;;;;;;;;;5111694;28;20055;-69
2021/08/20 07:56:34;;;;;;;7.88;3.42;;;;;;;;;;5111928;28;20059;-69
2021/08/20 07:59:01;;;;;;;4.65;3.13;;;;;;;;;;5111985;28;20488;-69
2021/08/20 08:01:29;;;;;;;6.00;3.28;;;;;;;;;;5111864;28;20614;-69
2021/08/20 08:03:58;;;;;;;4.03;2.80;;;;;;;;;;5111874;28;20054;-69
2021/08/20 08:06:24;;;;;;;6.65;3.70;;;;;;;;;;5111978;28;20052;-69
2021/08/20 08:08:51;;;;;;;6.22;3.15;;;;;;;;;;5111837;28;20131;-69
2021/08/20 08:11:18;;;;;;;5.45;3.38;;;;;;;;;;5111714;28;20052;-69
2021/08/20 08:13:44;;;;;;;6.57;3.38;;;;;;;;;;5111985;28;20055;-69
2021/08/20 08:16:11;;;;;;;6.55;3.75;;;;;;;;;;5111665;28;20060;-69
2021/08/20 08:18:39;;;;;;;9.07;4.43;;;;;;;;;;5111609;28;20056;-69
2021/08/20 08:21:06;;;;;;;5.30;3.80;;;;;;;;;;5111451;28;20056;-69
2021/08/20 08:23:32;;;;;;;5.75;3.38;;;;;;;;;;5111583;28;20416;-70
2021/08/20 08:25:59;;;;;;;6.13;3.15;;;;;;;;;;5110900;28;20054;-69
2021/08/20 08:28:25;;;;;;;6.57;3.67;;;;;;;;;;5106346;28;20400;-68
2021/08/20 08:30:52;;;;;;;6.38;2.95;;;;;;;;;;5104024;28;20050;-68
2021/08/20 08:33:19;;;;;;;7.95;3.83;;;;;;;;;;5103790;28;20040;-69
2021/08/20 08:35:46;;;;;;;11.98;3.95;;;;;;;;;;5109438;28;20046;-69
2021/08/20 08:38:14;;;;;;;5.82;3.88;;;;;;;;;;5111715;28;20047;-68
2021/08/20 08:40:44;;;;;;;6.35;3.50;;;;;;;;;;5112643;27;20051;-68
2021/08/20 08:43:12;;;;;;;6.47;3.85;;;;;;;;;;5113983;28;20044;-69
2021/08/20 08:45:39;;;;;;;7.28;4.25;;;;;;;;;;5114832;28;20051;-69
2021/08/20 08:48:07;;;;;;;5.95;3.58;;;;;;;;;;5111948;27;20047;-69
2021/08/20 08:50:34;;;;;;;6.30;4.10;;;;;;;;;;5110490;27;20050;-69
2021/08/20 08:53:02;;;;;;;9.43;4.30;;;;;;;;;;5108981;28;20055;-69
2021/08/20 08:55:29;;;;;;;6.22;3.90;;;;;;;;;;5107531;28;20460;-69
2021/08/20 08:57:55;;;;;;;5.22;3.92;;;;;;;;;;5110927;28;20043;-69
2021/08/20 09:00:29;;;;;;;5.15;3.47;;;;;;;;;;5110979;28;20484;-69
2021/08/20 09:02:55;;;;;;;5.90;3.90;;;;;;;;;;5111345;28;20536;-69
2021/08/20 09:05:22;;;;;;;4.85;3.67;;;;;;;;;;5113887;28;20051;-69
2021/08/20 09:07:51;;;;;;;6.28;3.80;;;;;;;;;;5110552;27;20392;-69
2021/08/20 09:10:20;;;;;;;5.70;3.58;;;;;;;;;;5113889;28;20439;-69
2021/08/20 09:12:55;;;;;;;4.75;3.47;;;;;;;;;;5114610;28;20428;-69
2021/08/20 09:15:24;;;;;;;5.80;3.92;;;;;;;;;;5115037;28;20052;-69
2021/08/20 09:17:52;;;;;;;6.65;4.47;;;;;;;;;;5113656;28;20468;-69
2021/08/20 09:20:22;;;;;;;5.40;3.70;;;;;;;;;;5108365;28;20130;-68
2021/08/20 09:22:50;;;;;;;7.22;4.00;;;;;;;;;;5113587;28;20464;-68
2021/08/20 09:25:31;;;;;;;7.32;4.03;;;;;;;;;;5114205;28;20721;-68
2021/08/20 09:28:09;;;;;;;10.30;3.55;;;;;;;;;;5105361;28;20051;-68
2021/08/20 09:30:36;;;;;;;6.35;3.50;;;;;;;;;;5113003;28;20043;-68
2021/08/20 09:33:03;;;;;;;5.72;3.40;;;;;;;;;;5112039;28;20043;-68
2021/08/20 09:35:35;;;;;;;5.25;3.40;;;;;;;;;;5108526;28;20058;-69
2021/08/20 09:38:07;;;;;;;5.78;3.50;;;;;;;;;;5113636;28;20093;-69
2021/08/20 09:40:34;;;;;;;6.35;3.10;;;;;;;;;;5114159;28;20039;-69
2021/08/20 09:43:11;;;;;;;6.30;3.72;;;;;;;;;;5111942;28;20056;-68
2021/08/20 09:45:41;;;;;;;5.65;3.47;;;;;;;;;;5112570;28;20039;-68
2021/08/20 09:48:07;;;;;;;6.85;4.00;;;;;;;;;;5113774;28;20047;-68
2021/08/20 09:50:41;;;;;;;5.68;3.50;;;;;;;;;;5113255;28;20411;-68
2021/08/20 09:53:12;;;;;;;5.97;3.88;;;;;;;;;;5111867;28;20058;-67
2021/08/20 09:55:41;;;;;;;7.40;4.53;;;;;;;;;;5113689;28;20055;-68
2021/08/20 09:58:10;;;;;;;7.05;4.20;;;;;;;;;;5113639;28;20420;-68
2021/08/20 10:00:37;;;;;;;4.75;3.10;;;;;;;;;;5113585;28;20047;-68
2021/08/20 10:03:06;;;;;;;5.45;3.50;;;;;;;;;;5110555;28;20398;-69
2021/08/20 10:05:33;;;;;;;4.95;3.33;;;;;;;;;;5113344;28;20055;-69
2021/08/20 10:08:03;;;;;;;6.00;3.67;;;;;;;;;;5113340;28;20533;-68
2021/08/20 10:10:31;;;;;;;7.20;4.00;;;;;;;;;;5111787;28;20043;-69
2021/08/20 10:12:59;;;;;;;6.40;3.38;;;;;;;;;;5113208;28;20048;-69
2021/08/20 10:15:28;;;;;;;9.50;4.35;;;;;;;;;;5097981;27;20047;-68
2021/08/20 10:17:55;;;;;;;3.90;2.83;;;;;;;;;;5105229;28;20043;-68
2021/08/20 10:20:22;;;;;;;3.45;2.28;;;;;;;;;;5105767;28;20055;-68
2021/08/20 10:22:50;;;;;;;5.40;2.85;;;;;;;;;;5112280;28;20040;-68
2021/08/20 10:25:16;;;;;;;5.35;2.50;;;;;;;;;;5113064;28;20044;-68
2021/08/20 10:27:43;;;;;;;5.78;2.22;;;;;;;;;;5110437;28;20047;-68
2021/08/20 10:30:12;;;;;;;6.03;2.30;;;;;;;;;;5112716;28;20446;-68
2021/08/20 10:32:40;;;;;;;3.50;1.70;;;;;;;;;;5110470;27;20602;-68
2021/08/20 10:35:10;;;;;;;2.85;1.80;;;;;;;;;;5108315;27;20484;-68
2021/08/20 10:37:36;;;;;;;6.53;2.03;;;;;;;;;;5111888;28;20043;-68
2021/08/20 10:40:22;;;;;;;3.17;2.00;;;;;;;;;;5112781;28;20480;-68
2021/08/20 10:42:49;;;;;;;3.20;1.85;;;;;;;;;;5110893;28;20050;-68
2021/08/20 10:45:17;;;;;;;4.47;1.98;;;;;;;;;;5110923;27;20069;-68
2021/08/20 10:47:45;;;;;;;6.47;2.25;;;;;;;;;;5112165;28;20407;-68
2021/08/20 10:50:13;;;;;;;2.42;1.73;;;;;;;;;;5112647;28;20047;-68
2021/08/20 10:52:41;;;;;;;4.82;2.03;;;;;;;;;;5113032;28;20044;-69
2021/08/20 10:55:16;;;;;;;4.85;2.08;;;;;;;;;;5112407;28;20052;-68
2021/08/20 10:58:14;;;;;;;5.57;2.17;;;;;;;;;;5112664;28;20044;-69
2021/08/20 11:00:43;;;;;;;4.00;2.20;;;;;;;;;;5112561;28;20043;-68
2021/08/20 11:03:12;;;;;;;4.03;2.25;;;;;;;;;;5112427;28;20044;-68
2021/08/20 11:05:47;;;;;;;6.20;1.83;;;;;;;;;;5112194;28;20068;-68
2021/08/20 11:08:39;;;;;;;3.85;2.08;;;;;;;;;;5112650;28;20046;-68
2021/08/20 11:11:06;;;;;;;6.43;2.28;;;;;;;;;;5112813;28;20100;-69
2021/08/20 11:13:33;;;;;;;3.13;1.65;;;;;;;;;;5111971;28;20047;-68
2021/08/20 11:16:02;;;;;;;4.22;2.22;;;;;;;;;;5111940;28;20047;-68
2021/08/20 11:18:40;;;;;;;3.22;1.75;;;;;;;;;;5112123;28;20103;-68
2021/08/20 11:21:07;;;;;;;4.00;1.70;;;;;;;;;;5112251;28;20054;-68
2021/08/20 11:23:33;;;;;;;5.15;2.10;;;;;;;;;;5109937;28;20047;-68
2021/08/20 11:26:03;;;;;;;4.13;1.95;;;;;;;;;;5111171;28;20134;-68
2021/08/20 11:28:32;;;;;;;3.15;1.80;;;;;;;;;;5111652;28;20052;-68
2021/08/20 11:31:03;;;;;;;3.53;2.00;;;;;;;;;;5112110;28;20655;-68
2021/08/20 11:33:30;;;;;;;3.00;1.80;;;;;;;;;;5109404;28;20141;-68
2021/08/20 11:35:58;;;;;;;4.45;1.67;;;;;;;;;;5109692;28;20066;-68
2021/08/20 11:38:34;;;;;;;2.97;1.70;;;;;;;;;;5107212;28;20109;-68
2021/08/20 11:41:04;;;;;;;4.72;1.83;;;;;;;;;;5110014;28;20043;-68
2021/08/20 11:43:31;;;;;;;4.15;2.05;;;;;;;;;;5110351;28;20446;-68
2021/08/20 11:46:01;;;;;;;3.25;2.00;;;;;;;;;;5107829;28;20066;-68
2021/08/20 11:48:29;;;;;;;4.35;1.70;;;;;;;;;;5105763;28;20043;-68
2021/08/20 11:50:57;;;;;;;5.70;1.95;;;;;;;;;;5106544;28;20451;-68
2021/08/20 11:53:25;;;;;;;4.75;2.10;;;;;;;;;;5108856;28;20047;-68
2021/08/20 11:55:52;;;;;;;10.95;3.80;;;;;;;;;;5107294;28;20487;-68
2021/08/20 11:58:28;;;;;;;13.00;2.80;;;;;;;;;;5110328;28;20391;-68
2021/08/20 12:00:55;;;;;;;10.93;2.45;;;;;;;;;;5111331;28;20047;-68
2021/08/20 12:03:24;;;;;;;3.67;2.50;;;;;;;;;;5111380;28;20051;-68
2021/08/20 12:05:50;;;;;;;3.22;2.03;;;;;;;;;;5111395;28;20361;-68
2021/08/20 12:08:18;;;;;;;5.05;2.28;;;;;;;;;;5115544;28;20059;-68
2021/08/20 12:10:46;;;;;;;5.63;2.10;;;;;;;;;;5116100;28;20051;-68
2021/08/20 12:13:13;;;;;;;5.45;2.08;;;;;;;;;;5116008;28;20392;-68
2021/08/20 12:15:41;;;;;;;4.30;1.85;;;;;;;;;;5115911;27;20051;-68
2021/08/20 12:18:21;;;;;;;3.30;1.88;;;;;;;;;;5115984;27;20100;-68
2021/08/20 12:20:49;;;;;;;3.95;2.10;;;;;;;;;;5113818;27;20484;-68
2021/08/20 12:23:16;;;;;;;2.65;1.70;;;;;;;;;;5110485;27;20135;-68
2021/08/20 12:25:42;;;;;;;2.92;1.92;;;;;;;;;;5114143;28;20047;-68
2021/08/20 12:28:14;;;;;;;3.38;1.85;;;;;;;;;;5110829;28;20051;-68
2021/08/20 12:30:41;;;;;;;2.63;2.00;;;;;;;;;;5112674;28;20078;-67
2021/08/20 12:33:08;;;;;;;3.58;1.70;;;;;;;;;;5112500;28;20036;-69
2021/08/20 12:35:35;;;;;;;7.28;2.03;;;;;;;;;;5114335;27;20043;-69
2021/08/20 12:38:06;;;;;;;2.95;1.65;;;;;;;;;;5115130;28;20546;-69
2021/08/20 12:40:37;;;;;;;8.77;2.20;;;;;;;;;;5115243;28;20135;-69
2021/08/20 12:43:05;;;;;;;4.28;2.38;;;;;;;;;;5115103;28;20055;-69
2021/08/20 12:45:32;;;;;;;4.18;1.95;;;;;;;;;;5114379;28;20420;-69
2021/08/20 12:48:03;;;;;;;5.10;2.30;;;;;;;;;;5110821;28;20047;-69
2021/08/20 12:50:31;;;;;;;2.20;1.65;;;;;;;;;;5103341;28;20051;-69
2021/08/20 12:53:01;;;;;;;5.95;1.90;;;;;;;;;;5105445;28;20099;-69
2021/08/20 12:55:31;;;;;;;3.50;1.60;;;;;;;;;;5114532;28;20051;-69
2021/08/20 12:57:59;;;;;;;3.55;2.03;;;;;;;;;;5108545;28;20062;-69
2021/08/20 13:00:28;;;;;;;5.00;1.95;;;;;;;;;;5113895;28;20043;-69
2021/08/20 13:02:55;;;;;;;4.50;1.80;;;;;;;;;;5114115;28;20040;-69
2021/08/20 13:05:21;;;;;;;7.97;2.22;;;;;;;;;;5114257;28;20054;-69
2021/08/20 13:07:48;;;;;;;6.22;1.90;;;;;;;;;;5114800;28;20044;-69
2021/08/20 13:10:14;;;;;;;11.32;2.28;;;;;;;;;;5114713;28;20039;-69
2021/08/20 13:12:44;;;;;;;4.85;1.88;;;;;;;;;;5112699;28;20533;-69
2021/08/20 13:15:11;;;;;;;2.75;1.70;;;;;;;;;;5113221;28;20054;-69
2021/08/20 13:17:37;;;;;;;6.45;2.10;;;;;;;;;;5112895;28;20136;-69
2021/08/20 13:20:05;;;;;;;4.63;1.95;;;;;;;;;;5112130;28;20042;-69
2021/08/20 13:22:31;;;;;;;3.85;2.03;;;;;;;;;;5120084;27;20152;-69
2021/08/20 13:24:58;;;;;;;3.13;1.83;;;;;;;;;;5122877;27;20052;-69
2021/08/20 13:27:24;;;;;;;4.82;1.70;;;;;;;;;;5112578;28;20488;-69
2021/08/20 13:29:52;;;;;;;4.60;2.08;;;;;;;;;;5112703;28;20039;-69
2021/08/20 13:32:18;;;;;;;5.20;1.90;;;;;;;;;;5112003;27;20060;-69
2021/08/20 13:34:45;;;;;;;3.38;1.80;;;;;;;;;;5113108;28;20043;-69
2021/08/20 13:37:11;;;;;;;4.55;1.98;;;;;;;;;;5113318;28;20361;-69
2021/08/20 13:39:38;;;;;;;5.15;2.00;;;;;;;;;;5113459;28;20507;-69
2021/08/20 13:42:05;;;;;;;3.13;1.90;;;;;;;;;;5112189;28;20419;-69
2021/08/20 13:44:33;;;;;;;3.55;2.05;;;;;;;;;;5112685;28;20040;-69
2021/08/20 13:47:01;;;;;;;6.65;2.00;;;;;;;;;;5112985;28;20044;-69
2021/08/20 13:49:27;;;;;;;2.90;1.92;;;;;;;;;;5110586;28;20492;-69
2021/08/20 13:51:56;;;;;;;3.15;1.98;;;;;;;;;;5114109;28;20055;-69
2021/08/20 13:54:22;;;;;;;3.05;2.10;;;;;;;;;;5113172;28;20052;-69
2021/08/20 13:56:49;;;;;;;3.42;1.73;;;;;;;;;;5112685;28;20488;-69
2021/08/20 13:59:16;;;;;;;2.60;1.70;;;;;;;;;;5110189;28;20079;-69
2021/08/20 14:01:42;;;;;;;5.30;1.98;;;;;;;;;;5112981;28;20051;-69
2021/08/20 14:04:10;;;;;;;3.40;1.70;;;;;;;;;;5112800;28;20039;-69
2021/08/20 14:06:36;;;;;;;4.22;1.58;;;;;;;;;;5112535;28;20066;-69
2021/08/20 14:09:03;;;;;;;3.22;1.98;;;;;;;;;;5113108;28;20062;-69
2021/08/20 14:11:29;;;;;;;2.97;1.70;;;;;;;;;;5112857;28;20048;-69
2021/08/20 14:13:57;;;;;;;3.35;2.00;;;;;;;;;;5113311;28;20044;-69
2021/08/20 14:16:26;;;;;;;3.03;1.92;;;;;;;;;;5112942;28;20051;-68
2021/08/20 14:18:52;;;;;;;4.55;1.80;;;;;;;;;;5113313;28;20059;-68
2021/08/20 14:21:21;;;;;;;5.35;1.73;;;;;;;;;;5112770;28;20048;-69
2021/08/20 14:23:48;;;;;;;3.90;1.88;;;;;;;;;;5112256;28;20052;-69
2021/08/20 14:26:14;;;;;;;8.25;2.10;;;;;;;;;;5113372;28;20234;-68
2021/08/20 14:28:41;;;;;;;8.52;2.13;;;;;;;;;;5113021;27;20369;-68
2021/08/20 14:31:07;;;;;;;5.03;2.17;;;;;;;;;;5112750;28;20416;-69
2021/08/20 14:33:34;;;;;;;3.83;1.60;;;;;;;;;;5113134;28;20055;-69
2021/08/20 14:36:00;;;;;;;5.30;1.88;;;;;;;;;;5112975;28;20051;-69
2021/08/20 14:38:28;;;;;;;5.50;1.98;;;;;;;;;;5112923;28;20047;-69
2021/08/20 14:40:54;;;;;;;5.82;1.70;;;;;;;;;;5113190;28;20074;-69
2021/08/20 14:43:21;;;;;;;2.90;1.70;;;;;;;;;;5112810;28;20384;-69
2021/08/20 14:45:47;;;;;;;3.30;1.90;;;;;;;;;;5112404;28;20052;-69